sensor_id;sensor_type;location;lat;lon;timestamp;temperature;humidity
11838;DHT22;5978;51.020;6.764;2023-11-21T00:00:10;10.10;99.90
11838;DHT22;5978;51.020;6.764;2023-11-21T00:02:36;10.00;99.90
11838;DHT22;5978;51.020;6.764;2023-11-21T00:05:07;10.00;99.90
11838;DHT22;5978;51.020;6.764;2023-11-21T00:07:33;10.00;99.90
11838;DHT22;5978;51.020;6.764;2023-11-21T00:09:59;10.00;99.90
11838;DHT22;5978;51.020;6.764;2023-11-21T00:12:25;10.00;99.90
11838;DHT22;5978;51.020;6.764;2023-11-21T00:14:50;9.90;99.90
11838;DHT22;5978;51.020;6.764;2023-11-21T00:17:16;9.90;99.90
11838;DHT22;5978;51.020;6.764;2023-11-21T00:19:41;9.90;99.90
11838;DHT22;5978;51.020;6.764;2023-11-21T00:22:08;9.80;99.90
11838;DHT22;5978;51.020;6.764;2023-11-21T00:24:34;9.80;99.90
11838;DHT22;5978;51.020;6.764;2023-11-21T00:27:00;9.80;99.90
11838;DHT22;5978;51.020;6.764;2023-11-21T00:29:26;9.80;99.90
11838;DHT22;5978;51.020;6.764;2023-11-21T00:31:52;9.80;99.90
11838;DHT22;5978;51.020;6.764;2023-11-21T00:34:18;9.70;99.90
11838;DHT22;5978;51.020;6.764;2023-11-21T00:36:43;9.70;99.90
11838;DHT22;5978;51.020;6.764;2023-11-21T00:39:09;9.60;99.90
11838;DHT22;5978;51.020;6.764;2023-11-21T00:41:35;9.60;99.90
11838;DHT22;5978;51.020;6.764;2023-11-21T00:44:01;9.60;99.90
11838;DHT22;5978;51.020;6.764;2023-11-21T00:46:27;9.60;99.90
11838;DHT22;5978;51.020;6.764;2023-11-21T00:48:54;9.60;99.90
11838;DHT22;5978;51.020;6.764;2023-11-21T00:51:20;9.60;99.90
11838;DHT22;5978;51.020;6.764;2023-11-21T00:53:47;9.60;99.90
11838;DHT22;5978;51.020;6.764;2023-11-21T00:56:13;9.60;99.90
11838;DHT22;5978;51.020;6.764;2023-11-21T00:58:39;9.60;99.90
11838;DHT22;5978;51.020;6.764;2023-11-21T01:01:09;9.60;99.90
11838;DHT22;5978;51.020;6.764;2023-11-21T01:03:34;9.70;99.90
11838;DHT22;5978;51.020;6.764;2023-11-21T01:06:00;9.70;99.90
11838;DHT22;5978;51.020;6.764;2023-11-21T01:08:26;9.70;99.90
11838;DHT22;5978;51.020;6.764;2023-11-21T01:10:51;9.70;99.90
11838;DHT22;5978;51.020;6.764;2023-11-21T01:13:17;9.60;99.90
11838;DHT22;5978;51.020;6.764;2023-11-21T01:15:43;9.60;99.90
11838;DHT22;5978;51.020;6.764;2023-11-21T01:18:09;9.60;99.90
11838;DHT22;5978;51.020;6.764;2023-11-21T01:20:35;9.60;99.90
11838;DHT22;5978;51.020;6.764;2023-11-21T01:23:00;9.60;99.90
11838;DHT22;5978;51.020;6.764;2023-11-21T01:25:26;9.60;99.90
11838;DHT22;5978;51.020;6.764;2023-11-21T01:27:52;9.60;99.90
11838;DHT22;5978;51.020;6.764;2023-11-21T01:30:17;9.60;99.90
11838;DHT22;5978;51.020;6.764;2023-11-21T01:32:43;9.70;99.90
11838;DHT22;5978;51.020;6.764;2023-11-21T01:35:09;9.70;99.90
11838;DHT22;5978;51.020;6.764;2023-11-21T01:37:36;9.70;99.90
11838;DHT22;5978;51.020;6.764;2023-11-21T01:40:02;9.60;99.90
11838;DHT22;5978;51.020;6.764;2023-11-21T01:42:30;9.50;99.90
11838;DHT22;5978;51.020;6.764;2023-11-21T01:44:56;9.40;99.90
11838;DHT22;5978;51.020;6.764;2023-11-21T01:47:21;9.40;99.90
11838;DHT22;5978;51.020;6.764;2023-11-21T01:49:47;9.30;99.90
11838;DHT22;5978;51.020;6.764;2023-11-21T01:52:13;9.30;99.90
11838;DHT22;5978;51.020;6.764;2023-11-21T01:54:41;9.30;99.90
11838;DHT22;5978;51.020;6.764;2023-11-21T01:57:07;9.30;99.90
11838;DHT22;5978;51.020;6.764;2023-11-21T01:59:37;9.30;99.90
11838;DHT22;5978;51.020;6.764;2023-11-21T02:02:04;9.30;99.90
11838;DHT22;5978;51.020;6.764;2023-11-21T02:04:34;9.30;99.90
11838;DHT22;5978;51.020;6.764;2023-11-21T02:07:00;9.30;99.90
11838;DHT22;5978;51.020;6.764;2023-11-21T02:09:29;9.30;99.90
11838;DHT22;5978;51.020;6.764;2023-11-21T02:11:58;9.20;99.90
11838;DHT22;5978;51.020;6.764;2023-11-21T02:14:25;9.20;99.90
11838;DHT22;5978;51.020;6.764;2023-11-21T02:16:52;9.20;99.90
11838;DHT22;5978;51.020;6.764;2023-11-21T02:19:20;9.20;99.90
11838;DHT22;5978;51.020;6.764;2023-11-21T02:21:49;9.10;99.90
11838;DHT22;5978;51.020;6.764;2023-11-21T02:24:19;9.10;99.90
11838;DHT22;5978;51.020;6.764;2023-11-21T02:26:45;9.10;99.90
11838;DHT22;5978;51.020;6.764;2023-11-21T02:29:11;9.10;99.90
11838;DHT22;5978;51.020;6.764;2023-11-21T02:31:38;9.10;99.90
11838;DHT22;5978;51.020;6.764;2023-11-21T02:34:13;9.10;99.90
11838;DHT22;5978;51.020;6.764;2023-11-21T02:36:39;9.10;99.90
11838;DHT22;5978;51.020;6.764;2023-11-21T02:39:05;9.10;99.90
11838;DHT22;5978;51.020;6.764;2023-11-21T02:41:33;9.10;99.90
11838;DHT22;5978;51.020;6.764;2023-11-21T02:44:00;9.10;99.90
11838;DHT22;5978;51.020;6.764;2023-11-21T02:46:26;9.10;99.90
11838;DHT22;5978;51.020;6.764;2023-11-21T02:48:51;9.20;99.90
11838;DHT22;5978;51.020;6.764;2023-11-21T02:51:19;9.10;99.90
11838;DHT22;5978;51.020;6.764;2023-11-21T02:53:45;9.20;99.90
11838;DHT22;5978;51.020;6.764;2023-11-21T02:56:12;9.10;99.90
11838;DHT22;5978;51.020;6.764;2023-11-21T02:58:40;9.20;99.90
11838;DHT22;5978;51.020;6.764;2023-11-21T03:01:06;9.20;99.90
11838;DHT22;5978;51.020;6.764;2023-11-21T03:03:33;9.20;99.90
11838;DHT22;5978;51.020;6.764;2023-11-21T03:05:59;9.20;99.90
11838;DHT22;5978;51.020;6.764;2023-11-21T03:08:24;9.20;99.90
11838;DHT22;5978;51.020;6.764;2023-11-21T03:10:50;9.20;99.90
11838;DHT22;5978;51.020;6.764;2023-11-21T03:13:15;9.20;99.90
11838;DHT22;5978;51.020;6.764;2023-11-21T03:15:41;9.20;99.90
11838;DHT22;5978;51.020;6.764;2023-11-21T03:18:08;9.20;99.90
11838;DHT22;5978;51.020;6.764;2023-11-21T03:20:33;9.20;99.90
11838;DHT22;5978;51.020;6.764;2023-11-21T03:23:00;9.20;99.90
11838;DHT22;5978;51.020;6.764;2023-11-21T03:25:26;9.20;99.90
11838;DHT22;5978;51.020;6.764;2023-11-21T03:27:51;9.30;99.90
11838;DHT22;5978;51.020;6.764;2023-11-21T03:30:17;9.30;99.90
11838;DHT22;5978;51.020;6.764;2023-11-21T03:32:43;9.30;99.90
11838;DHT22;5978;51.020;6.764;2023-11-21T03:35:09;9.30;99.90
11838;DHT22;5978;51.020;6.764;2023-11-21T03:37:35;9.30;99.90
11838;DHT22;5978;51.020;6.764;2023-11-21T03:40:00;9.30;99.90
11838;DHT22;5978;51.020;6.764;2023-11-21T03:42:29;9.30;99.90
11838;DHT22;5978;51.020;6.764;2023-11-21T03:44:54;9.30;99.90
11838;DHT22;5978;51.020;6.764;2023-11-21T03:47:20;9.40;99.90
11838;DHT22;5978;51.020;6.764;2023-11-21T03:49:46;9.30;99.90
11838;DHT22;5978;51.020;6.764;2023-11-21T03:52:12;9.30;99.90
11838;DHT22;5978;51.020;6.764;2023-11-21T03:54:37;9.30;99.90
11838;DHT22;5978;51.020;6.764;2023-11-21T03:57:03;9.30;99.90
11838;DHT22;5978;51.020;6.764;2023-11-21T03:59:29;9.30;99.90
11838;DHT22;5978;51.020;6.764;2023-11-21T04:01:58;9.40;99.90
11838;DHT22;5978;51.020;6.764;2023-11-21T04:04:23;9.40;99.90
11838;DHT22;5978;51.020;6.764;2023-11-21T04:06:49;9.40;99.90
11838;DHT22;5978;51.020;6.764;2023-11-21T04:09:14;9.40;99.90
11838;DHT22;5978;51.020;6.764;2023-11-21T04:11:40;9.40;99.90
11838;DHT22;5978;51.020;6.764;2023-11-21T04:14:05;9.40;99.90
11838;DHT22;5978;51.020;6.764;2023-11-21T04:16:31;9.40;99.90
11838;DHT22;5978;51.020;6.764;2023-11-21T04:18:57;9.40;99.90
11838;DHT22;5978;51.020;6.764;2023-11-21T04:21:22;9.30;99.90
11838;DHT22;5978;51.020;6.764;2023-11-21T04:23:49;9.30;99.90
11838;DHT22;5978;51.020;6.764;2023-11-21T04:26:15;9.30;99.90
11838;DHT22;5978;51.020;6.764;2023-11-21T04:28:40;9.30;99.90
11838;DHT22;5978;51.020;6.764;2023-11-21T04:31:06;9.30;99.90
11838;DHT22;5978;51.020;6.764;2023-11-21T04:33:32;9.40;99.90
11838;DHT22;5978;51.020;6.764;2023-11-21T04:35:58;9.30;99.90
11838;DHT22;5978;51.020;6.764;2023-11-21T04:38:23;9.30;99.90
11838;DHT22;5978;51.020;6.764;2023-11-21T04:40:49;9.30;99.90
11838;DHT22;5978;51.020;6.764;2023-11-21T04:43:15;9.30;99.90
11838;DHT22;5978;51.020;6.764;2023-11-21T04:45:40;9.20;99.90
11838;DHT22;5978;51.020;6.764;2023-11-21T04:48:07;9.20;99.90
11838;DHT22;5978;51.020;6.764;2023-11-21T04:50:34;9.20;99.90
11838;DHT22;5978;51.020;6.764;2023-11-21T04:53:00;9.20;99.90
11838;DHT22;5978;51.020;6.764;2023-11-21T04:55:25;9.20;99.90
11838;DHT22;5978;51.020;6.764;2023-11-21T04:57:54;9.10;99.90
11838;DHT22;5978;51.020;6.764;2023-11-21T05:00:19;9.10;99.90
11838;DHT22;5978;51.020;6.764;2023-11-21T05:02:46;9.10;99.90
11838;DHT22;5978;51.020;6.764;2023-11-21T05:05:12;9.00;99.90
11838;DHT22;5978;51.020;6.764;2023-11-21T05:07:40;8.90;99.90
11838;DHT22;5978;51.020;6.764;2023-11-21T05:10:07;9.00;99.90
11838;DHT22;5978;51.020;6.764;2023-11-21T05:12:36;8.90;99.90
11838;DHT22;5978;51.020;6.764;2023-11-21T05:15:05;9.00;99.90
11838;DHT22;5978;51.020;6.764;2023-11-21T05:17:40;9.00;99.90
11838;DHT22;5978;51.020;6.764;2023-11-21T05:20:15;9.00;99.90
11838;DHT22;5978;51.020;6.764;2023-11-21T05:22:49;9.00;99.90
11838;DHT22;5978;51.020;6.764;2023-11-21T05:25:15;8.90;99.90
11838;DHT22;5978;51.020;6.764;2023-11-21T05:27:40;9.00;99.90
11838;DHT22;5978;51.020;6.764;2023-11-21T05:30:06;9.00;99.90
11838;DHT22;5978;51.020;6.764;2023-11-21T05:32:37;9.00;99.90
11838;DHT22;5978;51.020;6.764;2023-11-21T05:35:03;9.00;99.90
11838;DHT22;5978;51.020;6.764;2023-11-21T05:37:28;9.00;99.90
11838;DHT22;5978;51.020;6.764;2023-11-21T05:39:55;9.00;99.90
11838;DHT22;5978;51.020;6.764;2023-11-21T05:42:22;9.10;99.90
11838;DHT22;5978;51.020;6.764;2023-11-21T05:44:48;9.10;99.90
11838;DHT22;5978;51.020;6.764;2023-11-21T05:47:14;9.10;99.90
11838;DHT22;5978;51.020;6.764;2023-11-21T05:49:40;9.10;99.90
11838;DHT22;5978;51.020;6.764;2023-11-21T05:52:05;9.10;99.90
11838;DHT22;5978;51.020;6.764;2023-11-21T05:54:32;9.10;99.90
11838;DHT22;5978;51.020;6.764;2023-11-21T05:56:58;9.10;99.90
11838;DHT22;5978;51.020;6.764;2023-11-21T05:59:24;9.10;99.90
11838;DHT22;5978;51.020;6.764;2023-11-21T06:01:50;9.00;99.90
11838;DHT22;5978;51.020;6.764;2023-11-21T06:04:16;9.00;99.90
11838;DHT22;5978;51.020;6.764;2023-11-21T06:06:41;9.10;99.90
11838;DHT22;5978;51.020;6.764;2023-11-21T06:09:07;9.00;99.90
11838;DHT22;5978;51.020;6.764;2023-11-21T06:11:35;9.10;99.90
11838;DHT22;5978;51.020;6.764;2023-11-21T06:14:01;9.00;99.90
11838;DHT22;5978;51.020;6.764;2023-11-21T06:16:27;9.00;99.90
11838;DHT22;5978;51.020;6.764;2023-11-21T06:18:53;9.10;99.90
11838;DHT22;5978;51.020;6.764;2023-11-21T06:21:19;9.00;99.90
11838;DHT22;5978;51.020;6.764;2023-11-21T06:23:44;9.00;99.90
11838;DHT22;5978;51.020;6.764;2023-11-21T06:26:10;9.00;99.90
11838;DHT22;5978;51.020;6.764;2023-11-21T06:28:35;9.00;99.90
11838;DHT22;5978;51.020;6.764;2023-11-21T06:31:02;9.10;99.90
11838;DHT22;5978;51.020;6.764;2023-11-21T06:33:31;9.10;99.90
11838;DHT22;5978;51.020;6.764;2023-11-21T06:35:57;9.10;99.90
11838;DHT22;5978;51.020;6.764;2023-11-21T06:38:23;9.10;99.90
11838;DHT22;5978;51.020;6.764;2023-11-21T06:40:49;9.20;99.90
11838;DHT22;5978;51.020;6.764;2023-11-21T06:43:15;9.20;99.90
11838;DHT22;5978;51.020;6.764;2023-11-21T10:12:51;9.80;99.90
11838;DHT22;5978;51.020;6.764;2023-11-21T10:15:24;9.70;99.90
11838;DHT22;5978;51.020;6.764;2023-11-21T10:17:54;9.90;99.90
11838;DHT22;5978;51.020;6.764;2023-11-21T10:20:20;10.10;99.90
11838;DHT22;5978;51.020;6.764;2023-11-21T10:22:47;10.30;99.90
11838;DHT22;5978;51.020;6.764;2023-11-21T10:25:13;10.50;99.90
11838;DHT22;5978;51.020;6.764;2023-11-21T10:27:48;10.50;99.90
11838;DHT22;5978;51.020;6.764;2023-11-21T10:30:16;10.70;99.90
11838;DHT22;5978;51.020;6.764;2023-11-21T10:32:43;10.90;99.90
11838;DHT22;5978;51.020;6.764;2023-11-21T10:35:10;10.90;99.90
11838;DHT22;5978;51.020;6.764;2023-11-21T10:37:39;11.00;99.90
11838;DHT22;5978;51.020;6.764;2023-11-21T10:40:11;11.10;99.90
11838;DHT22;5978;51.020;6.764;2023-11-21T10:42:38;11.20;99.90
11838;DHT22;5978;51.020;6.764;2023-11-21T10:45:05;11.20;99.90
11838;DHT22;5978;51.020;6.764;2023-11-21T10:47:44;11.30;99.90
11838;DHT22;5978;51.020;6.764;2023-11-21T10:50:10;11.30;99.90
11838;DHT22;5978;51.020;6.764;2023-11-21T10:52:40;11.40;99.90
11838;DHT22;5978;51.020;6.764;2023-11-21T10:55:19;11.50;99.90
11838;DHT22;5978;51.020;6.764;2023-11-21T10:57:48;11.50;99.90
11838;DHT22;5978;51.020;6.764;2023-11-21T11:00:16;11.60;99.90
11838;DHT22;5978;51.020;6.764;2023-11-21T11:02:46;11.50;99.90
11838;DHT22;5978;51.020;6.764;2023-11-21T11:05:15;11.50;99.90
11838;DHT22;5978;51.020;6.764;2023-11-21T11:07:45;11.50;99.90
11838;DHT22;5978;51.020;6.764;2023-11-21T11:10:13;11.60;99.90
11838;DHT22;5978;51.020;6.764;2023-11-21T11:12:41;11.60;99.90
11838;DHT22;5978;51.020;6.764;2023-11-21T11:15:08;11.50;99.90
11838;DHT22;5978;51.020;6.764;2023-11-21T11:17:37;11.50;99.90
11838;DHT22;5978;51.020;6.764;2023-11-21T11:20:11;11.50;99.90
11838;DHT22;5978;51.020;6.764;2023-11-21T11:28:17;11.50;99.90
11838;DHT22;5978;51.020;6.764;2023-11-21T11:33:47;11.50;99.90
11838;DHT22;5978;51.020;6.764;2023-11-21T11:36:25;11.60;99.90
11838;DHT22;5978;51.020;6.764;2023-11-21T11:38:51;11.60;99.90
11838;DHT22;5978;51.020;6.764;2023-11-21T11:41:25;11.50;99.90
11838;DHT22;5978;51.020;6.764;2023-11-21T11:43:52;11.50;99.90
11838;DHT22;5978;51.020;6.764;2023-11-21T11:46:18;11.60;99.90
11838;DHT22;5978;51.020;6.764;2023-11-21T11:48:48;11.60;99.90
11838;DHT22;5978;51.020;6.764;2023-11-21T11:51:15;11.60;99.90
11838;DHT22;5978;51.020;6.764;2023-11-21T11:53:44;11.50;99.90
11838;DHT22;5978;51.020;6.764;2023-11-21T11:56:26;11.40;99.90
11838;DHT22;5978;51.020;6.764;2023-11-21T11:58:58;11.50;99.90
11838;DHT22;5978;51.020;6.764;2023-11-21T12:01:26;11.50;99.90
11838;DHT22;5978;51.020;6.764;2023-11-21T12:06:36;11.50;99.90
11838;DHT22;5978;51.020;6.764;2023-11-21T12:09:03;11.60;99.90
11838;DHT22;5978;51.020;6.764;2023-11-21T12:11:32;11.70;99.90
11838;DHT22;5978;51.020;6.764;2023-11-21T12:13:58;11.70;99.90
11838;DHT22;5978;51.020;6.764;2023-11-21T12:16:25;11.70;99.90
11838;DHT22;5978;51.020;6.764;2023-11-21T12:18:53;11.60;99.90
11838;DHT22;5978;51.020;6.764;2023-11-21T12:21:20;11.50;99.90
11838;DHT22;5978;51.020;6.764;2023-11-21T12:23:46;11.40;99.90
11838;DHT22;5978;51.020;6.764;2023-11-21T12:26:13;11.40;99.90
11838;DHT22;5978;51.020;6.764;2023-11-21T12:28:39;11.40;99.90
11838;DHT22;5978;51.020;6.764;2023-11-21T12:31:05;11.40;99.90
11838;DHT22;5978;51.020;6.764;2023-11-21T12:33:33;11.50;99.90
11838;DHT22;5978;51.020;6.764;2023-11-21T12:35:58;11.50;99.90
11838;DHT22;5978;51.020;6.764;2023-11-21T12:38:24;11.60;99.90
11838;DHT22;5978;51.020;6.764;2023-11-21T12:40:50;11.70;99.90
11838;DHT22;5978;51.020;6.764;2023-11-21T12:43:17;11.70;99.90
11838;DHT22;5978;51.020;6.764;2023-11-21T12:45:43;11.80;99.90
11838;DHT22;5978;51.020;6.764;2023-11-21T12:48:10;11.80;99.90
11838;DHT22;5978;51.020;6.764;2023-11-21T12:50:37;12.00;99.90
11838;DHT22;5978;51.020;6.764;2023-11-21T12:53:08;12.20;99.90
11838;DHT22;5978;51.020;6.764;2023-11-21T12:55:36;13.30;99.90
11838;DHT22;5978;51.020;6.764;2023-11-21T12:58:09;14.40;99.90
11838;DHT22;5978;51.020;6.764;2023-11-21T13:00:40;15.00;99.90
11838;DHT22;5978;51.020;6.764;2023-11-21T13:03:08;14.90;99.90
11838;DHT22;5978;51.020;6.764;2023-11-21T13:05:39;14.70;99.90
11838;DHT22;5978;51.020;6.764;2023-11-21T13:08:06;14.40;99.90
11838;DHT22;5978;51.020;6.764;2023-11-21T13:10:44;13.90;99.90
11838;DHT22;5978;51.020;6.764;2023-11-21T13:13:13;13.50;99.90
11838;DHT22;5978;51.020;6.764;2023-11-21T13:15:55;13.30;99.90
11838;DHT22;5978;51.020;6.764;2023-11-21T13:18:25;12.90;99.90
11838;DHT22;5978;51.020;6.764;2023-11-21T13:20:58;12.80;99.90
11838;DHT22;5978;51.020;6.764;2023-11-21T13:23:25;12.70;99.90
11838;DHT22;5978;51.020;6.764;2023-11-21T13:25:52;12.60;99.90
11838;DHT22;5978;51.020;6.764;2023-11-21T13:28:18;12.60;99.90
11838;DHT22;5978;51.020;6.764;2023-11-21T13:30:46;12.40;99.90
11838;DHT22;5978;51.020;6.764;2023-11-21T13:33:14;12.30;99.90
11838;DHT22;5978;51.020;6.764;2023-11-21T13:35:43;12.30;99.90
11838;DHT22;5978;51.020;6.764;2023-11-21T13:38:17;12.20;99.90
11838;DHT22;5978;51.020;6.764;2023-11-21T13:40:48;12.10;99.90
11838;DHT22;5978;51.020;6.764;2023-11-21T13:43:19;12.10;99.90
11838;DHT22;5978;51.020;6.764;2023-11-21T13:45:46;12.10;99.90
11838;DHT22;5978;51.020;6.764;2023-11-21T13:48:13;12.00;99.90
11838;DHT22;5978;51.020;6.764;2023-11-21T13:50:47;12.00;99.90
11838;DHT22;5978;51.020;6.764;2023-11-21T13:53:27;12.00;99.90
11838;DHT22;5978;51.020;6.764;2023-11-21T13:55:56;11.90;99.90
11838;DHT22;5978;51.020;6.764;2023-11-21T13:58:26;12.00;99.90
11838;DHT22;5978;51.020;6.764;2023-11-21T14:01:13;12.00;99.90
11838;DHT22;5978;51.020;6.764;2023-11-21T14:04:05;12.00;99.90
11838;DHT22;5978;51.020;6.764;2023-11-21T14:06:51;12.00;99.90
11838;DHT22;5978;51.020;6.764;2023-11-21T14:09:21;12.00;99.90
11838;DHT22;5978;51.020;6.764;2023-11-21T14:11:58;12.00;99.90
11838;DHT22;5978;51.020;6.764;2023-11-21T14:14:26;12.00;99.90
11838;DHT22;5978;51.020;6.764;2023-11-21T14:16:53;12.00;99.90
11838;DHT22;5978;51.020;6.764;2023-11-21T14:19:20;12.00;99.90
11838;DHT22;5978;51.020;6.764;2023-11-21T14:21:46;12.00;99.90
11838;DHT22;5978;51.020;6.764;2023-11-21T14:24:14;12.00;99.90
11838;DHT22;5978;51.020;6.764;2023-11-21T14:26:45;11.90;99.90
11838;DHT22;5978;51.020;6.764;2023-11-21T14:29:12;11.80;99.90
11838;DHT22;5978;51.020;6.764;2023-11-21T14:31:40;11.80;99.90
11838;DHT22;5978;51.020;6.764;2023-11-21T14:34:07;11.70;99.90
11838;DHT22;5978;51.020;6.764;2023-11-21T14:36:34;11.70;99.90
11838;DHT22;5978;51.020;6.764;2023-11-21T14:38:59;11.60;99.90
11838;DHT22;5978;51.020;6.764;2023-11-21T14:41:25;11.60;99.90
11838;DHT22;5978;51.020;6.764;2023-11-21T14:43:53;11.60;99.90
11838;DHT22;5978;51.020;6.764;2023-11-21T14:46:19;11.60;99.90
11838;DHT22;5978;51.020;6.764;2023-11-21T14:48:45;11.60;99.90
11838;DHT22;5978;51.020;6.764;2023-11-21T14:51:28;11.60;99.90
11838;DHT22;5978;51.020;6.764;2023-11-21T14:53:58;11.60;99.90
11838;DHT22;5978;51.020;6.764;2023-11-21T14:56:33;11.60;99.90
11838;DHT22;5978;51.020;6.764;2023-11-21T14:59:01;11.50;99.90
11838;DHT22;5978;51.020;6.764;2023-11-21T15:01:45;11.60;99.90
11838;DHT22;5978;51.020;6.764;2023-11-21T15:04:20;11.50;99.90
11838;DHT22;5978;51.020;6.764;2023-11-21T15:06:57;11.60;99.90
11838;DHT22;5978;51.020;6.764;2023-11-21T15:09:24;11.60;99.90
11838;DHT22;5978;51.020;6.764;2023-11-21T15:12:02;11.50;99.90
11838;DHT22;5978;51.020;6.764;2023-11-21T15:14:50;11.50;99.90
11838;DHT22;5978;51.020;6.764;2023-11-21T15:17:23;11.50;99.90
11838;DHT22;5978;51.020;6.764;2023-11-21T15:19:52;11.40;99.90
11838;DHT22;5978;51.020;6.764;2023-11-21T15:22:19;11.30;99.90
11838;DHT22;5978;51.020;6.764;2023-11-21T15:24:45;11.30;99.90
11838;DHT22;5978;51.020;6.764;2023-11-21T15:27:13;11.30;99.90
11838;DHT22;5978;51.020;6.764;2023-11-21T15:29:41;11.30;99.90
11838;DHT22;5978;51.020;6.764;2023-11-21T15:32:08;11.20;99.90
11838;DHT22;5978;51.020;6.764;2023-11-21T15:34:35;11.00;99.90
11838;DHT22;5978;51.020;6.764;2023-11-21T15:37:05;10.90;99.90
11838;DHT22;5978;51.020;6.764;2023-11-21T15:39:38;10.80;99.90
11838;DHT22;5978;51.020;6.764;2023-11-21T15:42:04;10.80;99.90
11838;DHT22;5978;51.020;6.764;2023-11-21T15:44:31;10.70;99.90
11838;DHT22;5978;51.020;6.764;2023-11-21T15:46:58;10.60;99.90
11838;DHT22;5978;51.020;6.764;2023-11-21T15:49:25;10.60;99.90
11838;DHT22;5978;51.020;6.764;2023-11-21T15:51:53;10.60;99.90
11838;DHT22;5978;51.020;6.764;2023-11-21T15:54:20;10.60;99.90
11838;DHT22;5978;51.020;6.764;2023-11-21T15:56:49;10.50;99.90
11838;DHT22;5978;51.020;6.764;2023-11-21T15:59:15;10.50;99.90
11838;DHT22;5978;51.020;6.764;2023-11-21T16:01:42;10.50;99.90
11838;DHT22;5978;51.020;6.764;2023-11-21T16:04:13;10.50;99.90
11838;DHT22;5978;51.020;6.764;2023-11-21T16:06:43;10.50;99.90
11838;DHT22;5978;51.020;6.764;2023-11-21T16:09:08;10.40;99.90
11838;DHT22;5978;51.020;6.764;2023-11-21T16:11:46;10.40;99.90
11838;DHT22;5978;51.020;6.764;2023-11-21T16:14:12;10.50;99.90
11838;DHT22;5978;51.020;6.764;2023-11-21T16:16:38;10.50;99.90
11838;DHT22;5978;51.020;6.764;2023-11-21T16:19:04;10.50;99.90
11838;DHT22;5978;51.020;6.764;2023-11-21T16:21:30;10.50;99.90
11838;DHT22;5978;51.020;6.764;2023-11-21T16:23:56;10.50;99.90
11838;DHT22;5978;51.020;6.764;2023-11-21T16:26:22;10.40;99.90
11838;DHT22;5978;51.020;6.764;2023-11-21T16:28:48;10.40;99.90
11838;DHT22;5978;51.020;6.764;2023-11-21T16:31:22;10.30;99.90
11838;DHT22;5978;51.020;6.764;2023-11-21T16:33:48;10.30;99.90
11838;DHT22;5978;51.020;6.764;2023-11-21T16:36:14;10.30;99.90
11838;DHT22;5978;51.020;6.764;2023-11-21T16:38:39;10.20;99.90
11838;DHT22;5978;51.020;6.764;2023-11-21T16:41:06;10.20;99.90
11838;DHT22;5978;51.020;6.764;2023-11-21T16:43:33;10.20;99.90
11838;DHT22;5978;51.020;6.764;2023-11-21T16:46:00;10.20;99.90
11838;DHT22;5978;51.020;6.764;2023-11-21T16:48:25;10.20;99.90
11838;DHT22;5978;51.020;6.764;2023-11-21T16:50:51;10.20;99.90
11838;DHT22;5978;51.020;6.764;2023-11-21T16:53:17;10.10;99.90
11838;DHT22;5978;51.020;6.764;2023-11-21T16:55:43;10.00;99.90
11838;DHT22;5978;51.020;6.764;2023-11-21T16:58:10;10.00;99.90
11838;DHT22;5978;51.020;6.764;2023-11-21T17:00:36;10.00;99.90
11838;DHT22;5978;51.020;6.764;2023-11-21T17:03:02;10.00;99.90
11838;DHT22;5978;51.020;6.764;2023-11-21T17:05:28;10.00;99.90
11838;DHT22;5978;51.020;6.764;2023-11-21T17:07:54;10.00;99.90
11838;DHT22;5978;51.020;6.764;2023-11-21T17:10:20;10.00;99.90
11838;DHT22;5978;51.020;6.764;2023-11-21T17:12:47;10.00;99.90
11838;DHT22;5978;51.020;6.764;2023-11-21T17:15:15;9.90;99.90
11838;DHT22;5978;51.020;6.764;2023-11-21T17:17:45;9.90;99.90
11838;DHT22;5978;51.020;6.764;2023-11-21T17:20:11;9.90;99.90
11838;DHT22;5978;51.020;6.764;2023-11-21T17:22:38;9.80;99.90
11838;DHT22;5978;51.020;6.764;2023-11-21T17:25:09;9.90;99.90
11838;DHT22;5978;51.020;6.764;2023-11-21T17:27:35;9.90;99.90
11838;DHT22;5978;51.020;6.764;2023-11-21T17:30:01;9.80;99.90
11838;DHT22;5978;51.020;6.764;2023-11-21T17:32:27;9.80;99.90
11838;DHT22;5978;51.020;6.764;2023-11-21T17:34:54;9.70;99.90
11838;DHT22;5978;51.020;6.764;2023-11-21T17:37:20;9.70;99.90
11838;DHT22;5978;51.020;6.764;2023-11-21T17:39:46;9.60;99.90
11838;DHT22;5978;51.020;6.764;2023-11-21T17:42:11;9.70;99.90
11838;DHT22;5978;51.020;6.764;2023-11-21T17:44:38;9.70;99.90
11838;DHT22;5978;51.020;6.764;2023-11-21T17:47:04;9.60;99.90
11838;DHT22;5978;51.020;6.764;2023-11-21T17:49:33;9.60;99.90
11838;DHT22;5978;51.020;6.764;2023-11-21T17:52:05;9.60;99.90
11838;DHT22;5978;51.020;6.764;2023-11-21T17:54:31;9.50;99.90
11838;DHT22;5978;51.020;6.764;2023-11-21T17:56:58;9.50;99.90
11838;DHT22;5978;51.020;6.764;2023-11-21T17:59:23;9.50;99.90
11838;DHT22;5978;51.020;6.764;2023-11-21T18:01:52;9.40;99.90
11838;DHT22;5978;51.020;6.764;2023-11-21T18:04:18;9.40;99.90
11838;DHT22;5978;51.020;6.764;2023-11-21T18:06:48;9.30;99.90
11838;DHT22;5978;51.020;6.764;2023-11-21T18:09:14;9.10;99.90
11838;DHT22;5978;51.020;6.764;2023-11-21T18:11:41;9.10;99.90
11838;DHT22;5978;51.020;6.764;2023-11-21T18:14:06;8.90;99.90
11838;DHT22;5978;51.020;6.764;2023-11-21T18:16:35;8.90;99.90
11838;DHT22;5978;51.020;6.764;2023-11-21T18:19:03;8.90;99.90
11838;DHT22;5978;51.020;6.764;2023-11-21T18:21:28;8.90;99.90
11838;DHT22;5978;51.020;6.764;2023-11-21T18:23:54;8.90;99.90
11838;DHT22;5978;51.020;6.764;2023-11-21T18:26:20;8.70;99.90
11838;DHT22;5978;51.020;6.764;2023-11-21T18:28:46;8.70;99.90
11838;DHT22;5978;51.020;6.764;2023-11-21T18:31:12;8.60;99.90
11838;DHT22;5978;51.020;6.764;2023-11-21T18:33:37;8.50;99.90
11838;DHT22;5978;51.020;6.764;2023-11-21T18:36:06;8.40;99.90
11838;DHT22;5978;51.020;6.764;2023-11-21T18:38:32;8.50;99.90
11838;DHT22;5978;51.020;6.764;2023-11-21T18:40:58;8.50;99.90
11838;DHT22;5978;51.020;6.764;2023-11-21T18:43:24;8.40;99.90
11838;DHT22;5978;51.020;6.764;2023-11-21T18:45:49;8.40;99.90
11838;DHT22;5978;51.020;6.764;2023-11-21T18:48:15;8.30;99.90
11838;DHT22;5978;51.020;6.764;2023-11-21T18:50:41;8.30;99.90
11838;DHT22;5978;51.020;6.764;2023-11-21T18:53:07;8.20;99.90
11838;DHT22;5978;51.020;6.764;2023-11-21T18:55:33;8.20;99.90
11838;DHT22;5978;51.020;6.764;2023-11-21T18:57:58;8.20;99.90
11838;DHT22;5978;51.020;6.764;2023-11-21T19:00:24;8.20;99.90
11838;DHT22;5978;51.020;6.764;2023-11-21T19:02:50;8.20;99.90
11838;DHT22;5978;51.020;6.764;2023-11-21T19:05:16;8.20;99.90
11838;DHT22;5978;51.020;6.764;2023-11-21T19:07:42;8.30;99.90
11838;DHT22;5978;51.020;6.764;2023-11-21T19:10:08;8.30;99.90
11838;DHT22;5978;51.020;6.764;2023-11-21T19:12:36;8.30;99.90
11838;DHT22;5978;51.020;6.764;2023-11-21T19:15:06;8.30;99.90
11838;DHT22;5978;51.020;6.764;2023-11-21T19:17:34;8.30;99.90
11838;DHT22;5978;51.020;6.764;2023-11-21T19:20:01;8.20;99.90
11838;DHT22;5978;51.020;6.764;2023-11-21T19:22:27;8.10;99.90
11838;DHT22;5978;51.020;6.764;2023-11-21T19:24:52;8.20;99.90
11838;DHT22;5978;51.020;6.764;2023-11-21T19:27:18;8.20;99.90
11838;DHT22;5978;51.020;6.764;2023-11-21T19:29:45;8.20;99.90
11838;DHT22;5978;51.020;6.764;2023-11-21T19:32:11;8.20;99.90
11838;DHT22;5978;51.020;6.764;2023-11-21T19:34:38;8.20;99.90